Time;durP1;ratioP1;P1;durP2;ratioP2;P2;SDS_P1;SDS_P2;PMS_P1;PMS_P2;Temp;Humidity;BMP_temperature;BMP_pressure;BME280_temperature;BME280_humidity;BME280_pressure;Samples;Min_cycle;Max_cycle;Signal;HPM_P1;HPM_P2
2023/10/08 00:00:53;;;;;;;1.77;1.52;;;;;;;15.85;85.76;102218.03;5013358;28;20052;-81
2023/10/08 00:03:20;;;;;;;2.83;1.60;;;;;;;15.83;85.48;102215.41;5013074;28;20030;-81
2023/10/08 00:05:46;;;;;;;;;;;;;;;15.82;85.56;102225.94;5012864;28;20030;-81
2023/10/08 00:08:12;;;;;;;4.03;1.70;;;;;;;15.78;85.13;102221.63;5013230;28;19913;-81
2023/10/08 00:10:44;;;;;;;1.40;1.30;;;;;;;15.78;85.61;102224.22;5012684;28;20045;-81
2023/10/08 00:13:15;;;;;;;2.60;1.75;;;;;;;15.76;85.68;102216.41;5013315;28;20022;-81
2023/10/08 00:15:53;;;;;;;1.80;1.50;;;;;;;15.71;85.60;102215.59;5013225;28;20045;-81
2023/10/08 00:18:22;;;;;;;1.65;1.50;;;;;;;15.68;85.55;102215.66;5011936;28;20140;-81
2023/10/08 00:21:06;;;;;;;2.03;1.50;;;;;;;15.64;85.68;102216.59;5013150;28;20028;-81
2023/10/08 00:23:35;;;;;;;1.85;1.60;;;;;;;15.64;85.52;102227.06;5013037;28;20371;-81
2023/10/08 00:26:04;;;;;;;2.05;1.42;;;;;;;15.60;85.62;102226.22;5012051;28;20038;-80
2023/10/08 00:28:31;;;;;;;1.88;1.45;;;;;;;15.60;85.91;102234.06;5013168;28;20025;-81
2023/10/08 00:31:11;;;;;;;3.55;1.80;;;;;;;15.54;85.91;102234.16;5012900;28;20026;-81
2023/10/08 00:33:36;;;;;;;1.95;1.50;;;;;;;15.52;86.13;102235.94;5012308;28;20475;-81
2023/10/08 00:36:17;;;;;;;2.20;1.50;;;;;;;15.49;86.10;102233.34;5013001;28;20052;-81
2023/10/08 00:38:44;;;;;;;3.40;1.77;;;;;;;15.47;86.07;102237.75;5012234;28;20113;-80
2023/10/08 00:41:14;;;;;;;1.80;1.58;;;;;;;15.44;86.19;102236.03;5012318;28;20048;-81
2023/10/08 00:43:39;;;;;;;2.10;1.50;;;;;;;15.41;86.15;102236.94;5012895;28;20084;-80
2023/10/08 00:46:35;;;;;;;1.47;1.37;;;;;;;15.38;86.28;102236.13;5011836;28;20040;-80
2023/10/08 00:48:58;;;;;;;2.33;1.60;;;;;;;15.33;86.35;102238.81;5012516;28;20042;-80
2023/10/08 00:51:26;;;;;;;1.73;1.50;;;;;;;15.32;86.34;102249.28;5012196;28;20101;-80
2023/10/08 00:53:58;;;;;;;2.17;1.42;;;;;;;15.23;86.56;102247.66;5013285;28;20030;-80
2023/10/08 00:59:46;;;;;;;1.60;1.30;;;;;;;15.18;86.76;102239.00;4956294;29;20046;-80
2023/10/08 01:02:14;;;;;;;1.83;1.33;;;;;;;15.18;86.82;102239.00;5009824;28;20049;-80
2023/10/08 01:04:43;;;;;;;1.83;1.40;;;;;;;15.11;86.67;102240.81;5016723;28;20121;-80
2023/10/08 01:07:13;;;;;;;1.40;1.30;;;;;;;15.10;86.78;102239.06;5015693;28;20057;-80
2023/10/08 01:09:42;;;;;;;1.33;1.17;;;;;;;15.06;86.81;102235.63;5016376;28;20532;-80
2023/10/08 01:12:15;;;;;;;1.23;1.05;;;;;;;15.03;86.96;102227.81;5015962;28;20382;-81
2023/10/08 01:14:46;;;;;;;2.05;1.30;;;;;;;15.00;87.08;102229.63;5015919;28;20113;-81
2023/10/08 01:17:16;;;;;;;1.70;1.42;;;;;;;14.97;87.29;102226.16;5016324;28;20053;-80
2023/10/08 01:19:54;;;;;;;1.60;1.13;;;;;;;14.97;87.26;102225.28;5016571;28;20022;-80
2023/10/08 01:22:21;;;;;;;1.30;1.05;;;;;;;14.95;87.45;102227.94;5014911;28;20038;-80
2023/10/08 01:24:52;;;;;;;1.73;1.30;;;;;;;14.93;87.99;102224.47;5015748;28;20584;-81
2023/10/08 01:27:21;;;;;;;2.45;1.67;;;;;;;14.88;88.04;102220.19;5016421;28;20240;-80
2023/10/08 01:29:50;;;;;;;2.33;1.40;;;;;;;14.83;87.70;102217.63;5015669;28;20022;-81
2023/10/08 01:32:20;;;;;;;1.58;1.48;;;;;;;14.79;87.86;102208.94;5015944;28;20037;-80
2023/10/08 01:34:46;;;;;;;2.17;1.45;;;;;;;14.76;87.99;102211.59;5015922;28;20050;-80
2023/10/08 01:37:19;;;;;;;2.90;1.50;;;;;;;14.72;88.16;102193.34;5015035;28;20080;-80
2023/10/08 01:39:49;;;;;;;1.30;1.20;;;;;;;14.72;88.22;102196.81;5016336;28;20277;-81
2023/10/08 01:42:23;;;;;;;1.40;1.30;;;;;;;14.67;88.42;102189.03;5014830;28;20026;-81
2023/10/08 01:44:50;;;;;;;2.05;1.50;;;;;;;14.66;88.54;102200.31;5016001;28;20056;-81
2023/10/08 01:47:16;;;;;;;1.50;1.10;;;;;;;14.63;88.74;102203.00;5015467;28;20101;-80
2023/10/08 01:49:44;;;;;;;2.00;1.70;;;;;;;14.67;88.45;102214.31;4996292;28;20037;-80
2023/10/08 01:52:18;;;;;;;2.05;1.25;;;;;;;14.64;88.70;102211.69;4995970;28;20357;-80
2023/10/08 01:54:44;;;;;;;1.80;1.38;;;;;;;14.67;88.93;102214.31;4996136;28;20022;-81
2023/10/08 01:57:10;;;;;;;1.73;1.33;;;;;;;14.66;88.67;102221.22;4994991;28;20101;-81
2023/10/08 01:59:37;;;;;;;1.38;1.27;;;;;;;14.67;89.06;102228.22;4996305;28;20022;-80
2023/10/08 02:02:05;;;;;;;1.88;1.10;;;;;;;14.66;88.79;102226.47;4995806;28;20073;-81
2023/10/08 02:04:31;;;;;;;1.25;0.90;;;;;;;14.66;89.44;102231.69;4994782;28;20026;-80
2023/10/08 02:06:56;;;;;;;2.00;1.40;;;;;;;14.66;89.25;102233.44;4995788;28;20141;-81
2023/10/08 02:09:26;;;;;;;1.30;1.20;;;;;;;14.64;89.16;102235.19;4995867;28;20770;-81
2023/10/08 02:11:53;;;;;;;1.13;1.02;;;;;;;14.64;89.00;102230.81;4995423;28;20047;-81
2023/10/08 02:14:22;;;;;;;1.30;1.20;;;;;;;14.63;89.35;102230.84;4995507;28;20041;-81
2023/10/08 02:16:48;;;;;;;1.15;0.90;;;;;;;14.65;89.34;102229.94;4995579;28;20105;-80
2023/10/08 02:19:18;;;;;;;1.23;1.13;;;;;;;14.64;89.10;102225.59;5009599;28;20033;-81
2023/10/08 02:21:46;;;;;;;1.60;1.42;;;;;;;14.62;89.32;102223.91;5015117;28;20024;-80
2023/10/08 02:24:12;;;;;;;1.42;1.33;;;;;;;14.64;89.42;102227.38;5014249;28;20034;-81
2023/10/08 02:26:38;;;;;;;1.27;1.15;;;;;;;14.64;89.44;102228.22;5015124;28;20030;-80
2023/10/08 02:29:10;;;;;;;1.10;1.00;;;;;;;14.63;89.67;102226.50;5059275;22;20045;-81
2023/10/08 02:31:40;;;;;;;1.55;1.40;;;;;;;14.59;89.65;102230.03;5074188;28;20036;-81
2023/10/08 02:34:08;;;;;;;1.65;1.15;;;;;;;14.58;89.60;102235.28;5073388;28;20023;-81
2023/10/08 02:36:37;;;;;;;1.52;1.40;;;;;;;14.60;89.53;102236.09;5073677;28;20032;-81
2023/10/08 02:39:13;;;;;;;2.00;1.55;;;;;;;14.56;89.64;102239.66;5073699;28;20393;-81
2023/10/08 02:41:41;;;;;;;1.52;1.42;;;;;;;14.59;89.66;102230.03;5074571;28;20484;-81
2023/10/08 02:44:07;;;;;;;1.95;1.58;;;;;;;14.57;89.47;102238.75;5074919;28;20380;-81
2023/10/08 02:46:33;;;;;;;1.60;1.30;;;;;;;14.58;89.67;102253.56;5073259;28;20039;-81
2023/10/08 02:48:58;;;;;;;1.80;1.50;;;;;;;14.55;90.07;102249.22;5074497;28;20025;-81
2023/10/08 02:51:24;;;;;;;4.30;1.97;;;;;;;14.51;90.14;102255.38;5074378;28;20033;-81
2023/10/08 02:53:50;;;;;;;3.05;1.63;;;;;;;14.47;89.90;102264.09;5073722;28;20025;-81
2023/10/08 02:56:15;;;;;;;2.13;1.40;;;;;;;14.46;90.87;102283.25;5067625;28;20052;-81
2023/10/08 02:58:47;;;;;;;2.40;1.80;;;;;;;14.41;90.16;102264.16;5054531;28;20033;-80
2023/10/08 03:01:13;;;;;;;2.03;1.60;;;;;;;14.43;90.12;102257.16;5053331;28;20044;-80
2023/10/08 03:03:40;;;;;;;1.43;1.33;;;;;;;14.42;90.22;102260.66;5054105;28;20021;-81
2023/10/08 03:06:11;;;;;;;1.83;1.48;;;;;;;14.36;90.74;102261.56;5053733;28;20021;-81
2023/10/08 03:08:38;;;;;;;3.20;1.80;;;;;;;14.36;90.38;102258.94;5053253;28;20063;-81
2023/10/08 03:11:16;;;;;;;1.58;1.48;;;;;;;14.33;90.58;102257.25;5053666;28;20047;-81
2023/10/08 03:13:46;;;;;;;1.60;1.48;;;;;;;14.35;90.29;102258.09;5053307;28;20178;-80
2023/10/08 03:16:13;;;;;;;1.98;1.65;;;;;;;14.33;90.39;102253.78;5053241;28;20112;-80
2023/10/08 03:18:43;;;;;;;1.73;1.63;;;;;;;14.34;90.53;102261.59;5053232;28;20049;-80
2023/10/08 03:23:58;;;;;;;1.92;1.38;;;;;;;14.32;90.79;102263.34;5053754;28;20090;-81
2023/10/08 03:27:05;;;;;;;1.83;1.50;;;;;;;14.30;90.95;102269.47;5053367;28;20044;-81
2023/10/08 03:29:18;;;;;;;1.52;1.40;;;;;;;14.29;90.94;102284.28;5049105;28;20106;-80
2023/10/08 03:34:15;;;;;;;3.85;2.25;;;;;;;14.25;91.64;102269.50;5053517;28;20044;-81
2023/10/08 03:36:44;;;;;;;2.53;1.92;;;;;;;14.19;91.32;102262.59;5066823;28;20028;-80
2023/10/08 03:39:13;;;;;;;2.67;1.80;;;;;;;14.22;91.37;102261.69;5073047;28;20030;-80
2023/10/08 03:41:51;;;;;;;2.45;1.75;;;;;;;14.21;91.51;102271.28;5072528;28;20051;-81
2023/10/08 03:44:17;;;;;;;2.65;1.90;;;;;;;14.20;92.08;102279.09;5053675;28;20477;-81
2023/10/08 03:46:43;;;;;;;1.80;1.50;;;;;;;14.19;92.26;102286.09;5053335;28;20036;-81
2023/10/08 03:49:25;;;;;;;2.70;1.80;;;;;;;14.16;92.24;102278.25;5052493;28;20098;-80
2023/10/08 03:51:51;;;;;;;1.92;1.58;;;;;;;14.14;91.82;102266.97;5053298;28;20025;-81
2023/10/08 03:54:29;;;;;;;1.95;1.58;;;;;;;14.15;92.26;102271.31;5052948;28;20028;-80
2023/10/08 03:56:58;;;;;;;1.70;1.52;;;;;;;14.15;91.67;102278.28;5052332;28;20408;-81
2023/10/08 03:59:30;;;;;;;3.10;2.10;;;;;;;14.10;93.25;102274.81;5052821;28;20053;-81
2023/10/08 04:02:23;;;;;;;2.90;2.00;;;;;;;14.11;92.03;102289.63;5053380;28;20140;-81
2023/10/08 04:04:49;;;;;;;2.47;2.10;;;;;;;14.11;92.48;102277.44;5052264;28;20079;-81
2023/10/08 04:12:38;;;;;;;3.13;1.67;;;;;;;14.12;92.78;102278.28;5057414;28;20496;-81
2023/10/08 04:15:07;;;;;;;2.28;1.60;;;;;;;14.11;92.21;102284.41;5072290;28;20029;-81
2023/10/08 04:17:44;;;;;;;2.33;1.70;;;;;;;14.13;92.13;102293.09;5072668;28;20020;-80
2023/10/08 04:23:05;;;;;;;2.05;1.58;;;;;;;14.10;92.41;102303.53;5048789;28;20097;-81
2023/10/08 04:25:32;;;;;;;1.77;1.60;;;;;;;14.09;92.84;102296.59;5072081;28;20262;-81
2023/10/08 04:27:59;;;;;;;2.90;1.70;;;;;;;14.06;93.18;102294.88;5071970;28;20115;-81
2023/10/08 04:30:35;;;;;;;;;;;;;;;14.07;92.58;102301.81;5073327;28;20024;-81
2023/10/08 04:33:06;;;;;;;1.38;1.27;;;;;;;14.08;92.61;102305.28;5072319;28;20293;-81
2023/10/08 04:36:01;;;;;;;2.25;1.80;;;;;;;14.05;92.33;102304.47;5072631;28;20468;-80
2023/10/08 04:38:28;;;;;;;2.75;1.70;;;;;;;14.05;92.45;102309.69;5071864;28;20111;-81
2023/10/08 04:40:54;;;;;;;1.30;1.20;;;;;;;14.02;93.06;102311.41;5072421;28;20048;-81
2023/10/08 04:43:37;;;;;;;1.90;1.40;;;;;;;14.01;92.77;102312.31;5071963;28;20413;-81
2023/10/08 04:48:51;;;;;;;1.95;1.40;;;;;;;13.99;92.71;102324.50;5073308;28;20039;-81
2023/10/08 04:51:18;;;;;;;1.58;1.45;;;;;;;13.96;92.73;102333.19;5072409;28;20078;-81
2023/10/08 04:53:45;;;;;;;2.45;1.70;;;;;;;13.96;92.54;102325.38;5072169;28;20046;-81
2023/10/08 04:56:18;;;;;;;1.85;1.55;;;;;;;13.96;92.94;102322.75;5072180;28;20487;-81
2023/10/08 04:58:47;;;;;;;2.15;1.50;;;;;;;13.96;92.82;102327.97;5072855;28;20055;-81
2023/10/08 05:01:17;;;;;;;1.40;1.30;;;;;;;13.95;93.18;102325.41;5072073;28;20066;-80
2023/10/08 05:04:07;;;;;;;2.22;1.60;;;;;;;13.93;92.99;102330.63;5072641;28;20372;-81
2023/10/08 05:12:08;;;;;;;2.13;1.60;;;;;;;13.90;93.17;102343.69;5051867;28;20528;-81
2023/10/08 05:17:11;;;;;;;2.65;1.80;;;;;;;13.87;93.01;102344.59;5052307;28;20033;-81
2023/10/08 05:23:06;;;;;;;2.33;1.92;;;;;;;13.85;93.06;102332.41;5051088;28;20370;-80
2023/10/08 05:25:11;;;;;;;3.22;1.98;;;;;;;13.82;93.21;102333.28;5041362;28;20373;-81
2023/10/08 05:27:56;;;;;;;2.97;2.00;;;;;;;13.83;93.11;102336.78;5051700;28;20052;-81
2023/10/08 05:30:38;;;;;;;2.90;1.77;;;;;;;13.82;93.19;102354.16;5052016;28;20425;-81
2023/10/08 05:38:38;;;;;;;3.45;2.10;;;;;;;13.77;93.37;102361.16;5051564;28;20430;-81
2023/10/08 05:52:14;;;;;;;2.08;1.80;;;;;;;13.73;93.82;102343.78;5055527;28;20397;-81
2023/10/08 05:59:52;;;;;;;1.52;1.42;;;;;;;13.65;94.58;102306.44;5055607;28;20159;-81
2023/10/08 06:13:05;;;;;;;3.95;2.30;;;;;;;13.53;97.21;102328.19;5056063;28;20116;-80
2023/10/08 06:18:13;;;;;;;3.95;2.55;;;;;;;13.49;96.97;102344.75;5053940;28;20094;-80
2023/10/08 06:20:43;;;;;;;4.20;2.50;;;;;;;13.48;96.56;102354.28;5054828;28;20036;-80
2023/10/08 06:23:18;;;;;;;3.83;2.45;;;;;;;13.48;95.92;102350.84;5054736;28;20067;-80
2023/10/08 06:25:46;;;;;;;4.05;2.30;;;;;;;13.54;95.52;102351.69;5055154;28;20029;-80
2023/10/08 06:28:19;;;;;;;2.97;2.10;;;;;;;13.57;95.64;102358.63;5054304;28;20493;-80
2023/10/08 06:30:49;;;;;;;3.72;2.17;;;;;;;13.61;95.39;102359.47;5066245;28;20039;-80
2023/10/08 06:33:19;;;;;;;3.22;1.90;;;;;;;13.64;95.44;102356.84;5066946;28;20104;-80
2023/10/08 06:35:44;;;;;;;3.53;2.40;;;;;;;13.63;97.22;102360.34;5054714;28;20051;-80
2023/10/08 06:38:14;;;;;;;3.40;2.00;;;;;;;13.61;96.07;102354.25;5053563;28;20021;-80
2023/10/08 06:43:16;;;;;;;3.27;2.10;;;;;;;13.68;95.72;102348.16;5054356;28;20036;-80
2023/10/08 06:45:43;;;;;;;4.50;2.40;;;;;;;13.72;95.75;102342.03;5053635;28;20037;-80
2023/10/08 06:48:09;;;;;;;2.00;1.80;;;;;;;13.79;95.96;102348.09;5054164;28;20079;-80
2023/10/08 06:50:35;;;;;;;3.05;2.10;;;;;;;13.83;95.46;102355.03;5054420;28;20442;-80
2023/10/08 06:53:07;;;;;;;2.78;1.98;;;;;;;13.86;95.95;102365.44;5053064;28;20032;-81
2023/10/08 06:55:35;;;;;;;2.58;1.90;;;;;;;13.89;95.96;102365.44;5054214;28;20025;-80
2023/10/08 06:58:00;;;;;;;3.17;2.10;;;;;;;13.95;95.62;102383.69;5064903;28;20039;-80
2023/10/08 07:00:39;;;;;;;2.93;2.10;;;;;;;13.89;96.05;102370.66;5073253;28;20457;-81
2023/10/08 07:03:06;;;;;;;2.63;2.00;;;;;;;13.89;96.84;102392.44;5074248;28;20376;-81
2023/10/08 07:05:36;;;;;;;2.97;2.13;;;;;;;13.99;95.77;102403.66;5073236;28;20040;-80
2023/10/08 07:08:06;;;;;;;3.58;2.20;;;;;;;13.97;96.90;102401.94;5058987;28;20103;-80
2023/10/08 07:10:34;;;;;;;5.30;2.83;;;;;;;13.96;96.71;102400.22;5054624;28;20033;-80
2023/10/08 07:12:59;;;;;;;5.72;2.60;;;;;;;13.95;96.19;102396.75;5054259;28;20036;-78
2023/10/08 07:15:26;;;;;;;3.67;2.40;;;;;;;14.02;96.03;102398.44;5066589;28;20032;-80
2023/10/08 07:17:52;;;;;;;3.40;2.40;;;;;;;14.12;95.83;102403.63;5073772;28;20275;-78
2023/10/08 07:20:21;;;;;;;4.57;2.30;;;;;;;14.17;95.79;102404.47;5072237;28;20176;-78
2023/10/08 07:22:48;;;;;;;3.95;2.22;;;;;;;14.19;95.58;102400.09;5062289;28;20101;-78
2023/10/08 07:25:15;;;;;;;3.65;2.50;;;;;;;14.23;97.16;102409.66;5052870;28;20025;-78
2023/10/08 07:27:40;;;;;;;5.75;2.70;;;;;;;14.24;96.53;102397.47;5061939;28;20221;-78
2023/10/08 07:30:13;;;;;;;3.87;2.13;;;;;;;14.23;96.38;102387.91;5072936;28;20119;-78
2023/10/08 07:32:38;;;;;;;3.83;2.20;;;;;;;14.32;96.39;102406.13;5072521;28;20036;-79
2023/10/08 07:35:29;;;;;;;4.47;2.40;;;;;;;14.35;95.85;102406.97;5072119;28;20036;-79
2023/10/08 07:37:54;;;;;;;2.20;2.00;;;;;;;14.43;96.07;102412.16;5073048;28;20044;-79
2023/10/08 07:40:20;;;;;;;2.67;2.00;;;;;;;14.48;96.07;102418.19;5072978;28;20214;-79
2023/10/08 07:42:51;;;;;;;2.63;2.00;;;;;;;14.52;96.07;102422.53;5073103;28;20020;-80
2023/10/08 07:45:17;;;;;;;2.35;1.80;;;;;;;14.60;95.88;102419.00;5073653;28;20778;-80
2023/10/08 07:47:43;;;;;;;2.63;1.90;;;;;;;14.61;95.84;102413.78;5073367;28;20053;-80
2023/10/08 07:50:11;;;;;;;2.47;1.80;;;;;;;14.72;95.59;102421.56;5072868;28;20045;-80
2023/10/08 07:52:37;;;;;;;2.08;1.67;;;;;;;14.74;95.84;102413.72;5073107;28;20024;-80
2023/10/08 07:55:04;;;;;;;2.00;1.80;;;;;;;14.82;95.59;102414.53;5061487;28;20063;-80
2023/10/08 07:57:30;;;;;;;2.10;1.77;;;;;;;14.91;95.60;102422.28;5053169;28;20107;-80
2023/10/08 08:00:04;;;;;;;3.42;2.40;;;;;;;14.96;96.46;102430.97;5053299;28;20066;-82
2023/10/08 08:02:31;;;;;;;5.00;2.90;;;;;;;14.93;96.00;102424.88;5065724;28;20400;-81
2023/10/08 08:04:56;;;;;;;5.20;3.00;;;;;;;14.87;95.79;102420.56;5063760;28;20433;-81
2023/10/08 08:07:22;;;;;;;5.87;2.83;;;;;;;14.92;95.94;102431.84;5052804;28;20102;-81
2023/10/08 08:09:59;;;;;;;3.87;2.40;;;;;;;14.95;96.53;102450.16;5056447;28;20150;-81
2023/10/08 08:12:25;;;;;;;8.18;3.80;;;;;;;14.92;96.30;102463.22;5058758;28;20531;-81
2023/10/08 08:14:52;;;;;;;7.05;3.42;;;;;;;14.93;96.47;102464.97;5068841;28;20032;-81
2023/10/08 08:17:18;;;;;;;6.05;3.17;;;;;;;14.95;96.05;102468.44;5066390;28;20025;-81
2023/10/08 08:19:52;;;;;;;6.55;3.28;;;;;;;14.97;97.36;102466.66;5052442;28;20029;-80
2023/10/08 08:22:30;;;;;;;7.57;3.60;;;;;;;14.97;97.52;102465.81;5064328;28;20021;-80
2023/10/08 08:25:05;;;;;;;5.05;3.20;;;;;;;15.03;97.05;102475.34;5072123;28;20373;-80
2023/10/08 08:27:34;;;;;;;6.70;3.10;;;;;;;15.05;96.59;102479.69;5072675;28;20029;-80
2023/10/08 08:30:15;;;;;;;4.60;2.75;;;;;;;15.13;96.75;102477.00;5071703;28;20477;-81
2023/10/08 08:32:43;;;;;;;3.67;2.45;;;;;;;15.24;96.70;102490.84;5072696;28;20111;-81
2023/10/08 08:35:09;;;;;;;7.63;3.50;;;;;;;15.26;96.70;102486.50;5055028;28;20028;-80
2023/10/08 08:37:35;;;;;;;4.20;3.00;;;;;;;15.36;96.62;102491.63;5051503;28;20037;-80
2023/10/08 08:40:26;;;;;;;6.28;3.50;;;;;;;15.40;96.73;102491.59;5052446;28;20021;-80
2023/10/08 08:42:52;;;;;;;7.43;3.75;;;;;;;15.51;96.74;102501.97;5059946;28;20377;-80
2023/10/08 08:45:22;;;;;;;7.40;3.60;;;;;;;15.62;96.89;102494.00;5071499;28;20076;-79
2023/10/08 08:47:48;;;;;;;12.98;5.05;;;;;;;15.67;96.73;102486.97;5072607;28;20043;-80
2023/10/08 08:50:14;;;;;;;18.23;7.15;;;;;;;15.74;96.62;102491.25;5068507;28;20055;-80
2023/10/08 08:52:40;;;;;;;18.87;8.67;;;;;;;15.74;96.22;102490.41;5051503;28;20055;-79
2023/10/08 08:55:14;;;;;;;18.88;8.45;;;;;;;15.75;96.84;102494.75;5052066;28;20534;-80
2023/10/08 08:57:41;;;;;;;22.58;9.35;;;;;;;15.78;96.49;102501.69;5052597;28;20096;-79
2023/10/08 09:00:11;;;;;;;21.80;10.30;;;;;;;15.78;96.80;102492.09;5052379;28;20017;-79
2023/10/08 09:02:37;;;;;;;16.88;7.40;;;;;;;15.85;96.52;102479.81;5056173;28;20461;-80
2023/10/08 09:07:56;;;;;;;20.38;8.50;;;;;;;16.10;96.52;102498.72;5050086;28;20154;-79
2023/10/08 09:10:29;;;;;;;15.80;6.93;;;;;;;16.18;96.35;102496.91;5051439;28;20174;-79
2023/10/08 09:12:59;;;;;;;18.00;7.57;;;;;;;16.33;95.50;102500.19;5063173;28;20029;-79
2023/10/08 09:15:26;;;;;;;20.80;8.93;;;;;;;16.39;95.40;102500.13;5054307;28;20029;-80
2023/10/08 09:17:52;;;;;;;18.67;8.75;;;;;;;16.43;94.69;102503.56;5065651;28;20082;-80
2023/10/08 09:20:20;;;;;;;20.40;9.68;;;;;;;16.46;94.60;102514.88;5075207;28;20039;-80
2023/10/08 09:22:47;;;;;;;23.17;11.85;;;;;;;16.39;95.02;102510.63;5075686;28;20042;-81
2023/10/08 09:25:22;;;;;;;23.02;11.20;;;;;;;16.43;95.25;102511.44;5075540;28;20033;-79
2023/10/08 09:27:55;;;;;;;21.73;10.88;;;;;;;16.45;95.13;102518.38;5074759;28;20070;-80
2023/10/08 09:30:20;;;;;;;19.63;8.63;;;;;;;16.51;95.57;102517.44;5063011;28;20481;-80
2023/10/08 09:32:49;;;;;;;18.10;8.23;;;;;;;16.61;95.51;102511.16;5055768;28;20074;-80
2023/10/08 09:35:15;;;;;;;16.02;7.80;;;;;;;16.73;95.08;102510.16;5059012;28;20044;-80
2023/10/08 09:37:41;;;;;;;20.65;11.00;;;;;;;16.74;94.18;102513.63;5074330;28;20528;-80
2023/10/08 09:40:11;;;;;;;26.47;14.07;;;;;;;16.67;94.18;102524.22;5073825;28;20039;-80
2023/10/08 09:42:42;;;;;;;21.40;12.35;;;;;;;16.63;95.03;102505.94;5067883;28;20028;-80
2023/10/08 09:45:08;;;;;;;24.33;13.13;;;;;;;16.66;95.35;102517.22;5058879;28;20056;-80
2023/10/08 09:47:41;;;;;;;21.80;11.52;;;;;;;16.72;95.51;102513.66;5054560;28;20361;-80
2023/10/08 09:50:11;;;;;;;22.55;11.32;;;;;;;16.71;96.06;102505.81;5055332;28;20072;-80
2023/10/08 09:52:44;;;;;;;19.77;9.20;;;;;;;16.74;95.90;102506.63;5055520;28;20025;-80
2023/10/08 09:55:10;;;;;;;23.42;12.00;;;;;;;16.61;96.25;102505.94;5054278;28;20377;-80
2023/10/08 09:57:38;;;;;;;22.23;11.40;;;;;;;16.61;95.93;102497.22;5055241;28;20036;-79
2023/10/08 10:00:10;;;;;;;24.23;11.95;;;;;;;16.61;96.59;102486.72;5055178;28;20031;-80
2023/10/08 10:02:37;;;;;;;18.30;8.60;;;;;;;16.68;96.45;102493.59;5054469;28;20033;-80
2023/10/08 10:05:03;;;;;;;18.42;7.72;;;;;;;16.75;96.13;102479.53;5054920;28;20098;-80
2023/10/08 10:07:29;;;;;;;20.20;8.80;;;;;;;16.79;96.13;102485.59;5054839;28;20548;-80
2023/10/08 10:09:55;;;;;;;;;;;;;;;16.68;96.19;102480.50;5062403;28;20378;-80
2023/10/08 10:12:25;;;;;;;24.48;12.40;;;;;;;16.55;96.39;102481.59;5075118;28;19944;-80
2023/10/08 10:14:56;;;;;;;25.98;12.18;;;;;;;16.48;97.51;102492.13;5075140;28;20028;-78
2023/10/08 10:17:26;;;;;;;23.33;11.95;;;;;;;16.41;98.26;102494.84;5064518;28;20025;-80
2023/10/08 10:19:55;;;;;;;23.92;12.00;;;;;;;16.36;98.32;102497.53;5054889;28;20055;-80
2023/10/08 10:22:29;;;;;;;22.52;10.13;;;;;;;16.35;98.83;102506.28;5053995;28;20025;-80
2023/10/08 10:24:56;;;;;;;27.73;13.10;;;;;;;16.25;99.12;102502.06;5054924;28;20040;-80
2023/10/08 10:27:22;;;;;;;22.08;11.25;;;;;;;16.25;99.01;102508.19;5053997;28;20367;-80
2023/10/08 10:29:48;;;;;;;26.33;11.77;;;;;;;16.17;99.76;102489.94;5053812;28;20048;-79
2023/10/08 10:32:14;;;;;;;25.25;11.73;;;;;;;16.19;100.00;102479.44;5054092;28;20547;-80
2023/10/08 10:34:41;;;;;;;20.50;9.68;;;;;;;16.25;99.36;102489.84;5054666;28;20425;-80
2023/10/08 10:37:25;;;;;;;14.95;7.22;;;;;;;16.34;98.98;102483.59;5053657;28;20040;-80
2023/10/08 10:40:00;;;;;;;11.60;5.50;;;;;;;16.51;98.62;102485.97;5054668;28;20029;-80
2023/10/08 10:42:28;;;;;;;9.45;4.68;;;;;;;16.67;98.92;102500.63;5054299;28;20035;-75
2023/10/08 10:44:55;;;;;;;23.88;10.25;;;;;;;16.67;97.60;102512.84;5054909;28;20396;-80
2023/10/08 10:52:31;;;;;;;20.58;9.60;;;;;;;16.64;97.77;102503.28;5053144;28;20029;-80
2023/10/08 10:55:17;;;;;;;19.83;9.20;;;;;;;16.57;97.73;102495.50;5054023;28;20102;-80
2023/10/08 10:58:25;;;;;;;22.58;9.98;;;;;;;16.52;97.72;102511.31;5048021;28;20021;-81
2023/10/08 11:03:17;;;;;;;22.43;9.63;;;;;;;16.41;98.44;102508.84;5053852;28;20032;-82
2023/10/08 11:05:51;;;;;;;18.85;8.43;;;;;;;16.40;98.27;102508.84;5053233;28;20370;-81
2023/10/08 11:08:18;;;;;;;21.33;10.27;;;;;;;16.31;99.11;102517.72;5053571;28;20082;-82
2023/10/08 11:10:49;;;;;;;22.27;10.10;;;;;;;16.25;98.60;102518.66;5053810;28;20025;-82
2023/10/08 11:13:15;;;;;;;23.58;11.23;;;;;;;16.20;100.00;102508.25;5053118;28;20025;-82
2023/10/08 11:15:42;;;;;;;22.05;10.05;;;;;;;16.19;100.00;102518.72;5054833;28;20037;-82
2023/10/08 11:18:09;;;;;;;23.73;11.40;;;;;;;16.07;100.00;102504.03;5053464;28;20363;-83
2023/10/08 11:20:39;;;;;;;21.10;9.38;;;;;;;16.13;100.00;102508.31;5055770;28;20033;-79
2023/10/08 11:23:21;;;;;;;18.92;9.00;;;;;;;16.23;100.00;102506.44;5058405;28;20041;-82
2023/10/08 11:25:54;;;;;;;20.25;9.20;;;;;;;16.14;99.44;102504.81;5052962;28;20028;-80
2023/10/08 11:28:19;;;;;;;19.60;8.90;;;;;;;16.20;99.59;102503.00;5053493;28;20053;-81
2023/10/08 11:30:46;;;;;;;18.53;8.43;;;;;;;16.25;99.18;102500.31;5053421;28;20491;-79
2023/10/08 11:33:15;;;;;;;20.13;8.63;;;;;;;16.16;98.01;102493.44;5052535;28;20119;-79
2023/10/08 11:36:01;;;;;;;16.20;7.35;;;;;;;16.22;98.54;102500.34;5053649;28;20052;-79
2023/10/08 11:38:27;;;;;;;14.32;7.00;;;;;;;16.23;98.28;102490.72;5053237;28;20020;-80
2023/10/08 11:40:58;;;;;;;16.93;7.03;;;;;;;16.26;98.12;102495.94;5052665;28;20078;-80
2023/10/08 11:43:24;;;;;;;18.27;7.85;;;;;;;16.15;97.56;102496.09;5053040;28;20279;-79
2023/10/08 11:45:51;;;;;;;17.27;7.63;;;;;;;16.19;98.09;102498.66;5053629;28;20545;-80
2023/10/08 11:48:21;;;;;;;18.35;7.45;;;;;;;16.17;97.74;102497.78;5051484;28;20045;-79
2023/10/08 11:50:50;;;;;;;19.02;8.23;;;;;;;16.10;98.29;102497.88;5053517;28;20032;-79
2023/10/08 11:53:16;;;;;;;18.15;7.78;;;;;;;16.06;98.31;102499.66;5053991;28;20465;-79
2023/10/08 11:55:42;;;;;;;19.73;8.23;;;;;;;15.99;98.05;102479.66;5052409;28;20035;-79
2023/10/08 11:58:11;;;;;;;19.10;8.23;;;;;;;16.02;98.58;102477.91;5052770;28;20027;-79
2023/10/08 12:00:44;;;;;;;21.10;8.45;;;;;;;16.03;98.86;102474.41;5052930;28;20449;-79
2023/10/08 12:03:19;;;;;;;18.50;7.65;;;;;;;16.10;98.65;102475.16;5052180;28;20090;-79
2023/10/08 12:05:48;;;;;;;14.70;6.00;;;;;;;16.20;98.18;102474.19;5053013;28;20025;-79
2023/10/08 12:08:16;;;;;;;17.42;6.97;;;;;;;16.28;98.78;102466.19;5052684;28;20508;-79
2023/10/08 12:10:49;;;;;;;17.25;7.10;;;;;;;16.35;97.83;102467.00;5052839;28;20033;-79
2023/10/08 12:13:16;;;;;;;12.55;5.53;;;;;;;16.40;97.68;102465.19;5052658;28;20060;-79
2023/10/08 12:15:44;;;;;;;11.10;4.80;;;;;;;16.49;97.96;102458.97;5051811;28;20449;-79
2023/10/08 12:18:24;;;;;;;7.95;4.00;;;;;;;16.63;98.10;102461.38;5052280;28;20025;-79
2023/10/08 12:20:50;;;;;;;12.75;4.70;;;;;;;16.78;96.60;102457.63;5052702;28;20480;-79
2023/10/08 12:23:28;;;;;;;9.73;4.63;;;;;;;16.83;97.37;102454.06;5051352;28;20104;-79
2023/10/08 12:25:55;;;;;;;12.75;5.43;;;;;;;16.88;96.82;102455.75;5052626;28;20519;-79
2023/10/08 12:28:30;;;;;;;11.95;5.35;;;;;;;16.98;95.59;102457.34;5051769;28;20193;-79
2023/10/08 12:31:03;;;;;;;11.43;5.40;;;;;;;17.07;95.93;102462.44;5051909;28;20029;-79
2023/10/08 12:33:29;;;;;;;9.20;4.68;;;;;;;17.17;95.68;102467.53;5052445;28;20104;-79
2023/10/08 12:35:55;;;;;;;13.05;5.80;;;;;;;17.24;95.16;102461.28;5052786;28;20116;-79
2023/10/08 12:38:27;;;;;;;15.38;5.70;;;;;;;17.31;95.11;102454.16;5051476;28;20031;-79
2023/10/08 12:40:53;;;;;;;10.60;5.07;;;;;;;17.43;95.34;102454.81;5052389;28;20087;-79
2023/10/08 12:43:27;;;;;;;13.30;5.40;;;;;;;17.51;94.77;102451.19;5052344;28;20076;-79
2023/10/08 12:45:53;;;;;;;13.80;5.80;;;;;;;17.56;94.30;102451.97;5052409;28;20332;-79
2023/10/08 12:48:27;;;;;;;13.10;6.05;;;;;;;17.57;94.17;102458.94;5052394;28;20021;-79
2023/10/08 12:50:56;;;;;;;10.32;4.55;;;;;;;17.58;94.63;102458.03;5054984;28;20036;-76
2023/10/08 12:53:38;;;;;;;10.27;4.70;;;;;;;17.58;94.37;102451.03;5056737;28;20033;-80